| time (UTC) | temp F | wind direction | speed knots | gust knots | rain 1hr in | rain 24hr in | rain mn in | humidity % | barometer mb |
| 20260506114535 | 54 | 178 | 0.9 | 7.8 | 0.00 | 0.00 | 0.00 | 28 | 1012.5 |
| 20260506113032 | 53 | 154 | 0.0 | 2.6 | 0.00 | 0.00 | 0.00 | 29 | 1012.5 |
| 20260506111530 | 53 | 120 | 0.9 | 4.3 | 0.00 | 0.00 | 0.00 | 26 | 1012.7 |
| 20260506110029 | 53 | 69 | 0.9 | 1.7 | 0.00 | 0.00 | 0.00 | 24 | 1012.9 |
| 20260506104529 | 52 | 112 | 0.9 | 6.1 | 0.00 | 0.00 | 0.00 | 25 | 1013.0 |
| 20260506103026 | 52 | 140 | 0.0 | 1.7 | 0.00 | 0.00 | 0.00 | 26 | 1013.3 |
| 20260506101524 | 52 | 116 | 0.9 | 4.3 | 0.00 | 0.00 | 0.00 | 27 | 1013.3 |
| 20260506100021 | 52 | 200 | 0.9 | 5.2 | 0.00 | 0.00 | 0.00 | 28 | 1013.4 |
| 20260506094520 | 51 | 152 | 0.0 | 3.5 | 0.00 | 0.00 | 0.00 | 30 | 1013.3 |
| 20260506093018 | 51 | 118 | 0.9 | 3.5 | 0.00 | 0.00 | 0.00 | 29 | 1013.4 |
| 20260506091518 | 51 | 185 | 0.0 | 5.2 | 0.00 | 0.00 | 0.00 | 33 | 1013.4 |
| 20260506090019 | 51 | 132 | 0.9 | 3.5 | 0.00 | 0.00 | 0.00 | 31 | 1013.5 |
| 20260506084520 | 50 | 245 | 0.9 | 6.1 | 0.00 | 0.00 | 0.00 | 31 | 1013.8 |
| 20260506083004 | 50 | 212 | 0.0 | 5.2 | 0.00 | 0.00 | 0.00 | 35 | 1013.8 |
| 20260506081600 | 50 | 119 | 0.0 | 7.0 | 0.00 | 0.00 | 0.00 | 34 | 1013.8 |
| 20260506080108 | 50 | 121 | 0.9 | 1.7 | 0.00 | 0.00 | 0.00 | 35 | 1013.7 |
| 20260506073102 | 49 | 189 | 0.0 | 3.5 | 0.00 | 0.00 | 0.00 | 40 | 1013.7 |
| 20260506071545 | 49 | 101 | 0.9 | 1.7 | 0.00 | 0.00 | 0.00 | 41 | 1013.6 |
| 20260506061528 | 42 | 180 | 0.0 | 0.0 | 0.00 | 0.00 | 0.00 | 69 | 1013.6 |
| 20260506044502 | 34 | 180 | 0.0 | 0.0 | 0.00 | 0.00 | 0.00 | 84 | 1013.6 |
| 20260506043103 | 33 | 180 | 0.0 | 0.0 | 0.00 | 0.00 | 0.00 | 85 | 1013.6 |
| 20260506041558 | 32 | 179 | 0.0 | 0.0 | 0.00 | 0.00 | 0.00 | 85 | 1013.4 |
| 20260506040053 | 30 | 178 | 0.0 | 0.0 | 0.00 | 0.00 | 0.00 | 85 | 1013.4 |
| 20260506034553 | 30 | 178 | 0.0 | 0.0 | 0.00 | 0.00 | 0.00 | 86 | 1013.3 |
| 20260506033056 | 29 | 178 | 0.0 | 0.0 | 0.00 | 0.00 | 0.00 | 85 | 1013.3 |
| 20260506031546 | 29 | 178 | 0.0 | 0.0 | 0.00 | 0.00 | 0.00 | 85 | 1013.1 |
| 20260506030042 | 29 | 177 | 0.0 | 0.0 | 0.00 | 0.00 | 0.00 | 84 | 1013.1 |
| 20260506024544 | 29 | 178 | 0.0 | 0.0 | 0.00 | 0.00 | 0.00 | 83 | 1013.1 |
| 20260506023040 | 30 | 177 | 0.0 | 0.0 | 0.00 | 0.00 | 0.00 | 82 | 1013.0 |
| 20260506021547 | 30 | 177 | 0.0 | 0.0 | 0.00 | 0.00 | 0.00 | 82 | 1012.9 |
| 20260506020036 | 30 | 178 | 0.0 | 0.9 | 0.00 | 0.00 | 0.00 | 81 | 1012.8 |
| 20260506014534 | 30 | 178 | 0.0 | 0.0 | 0.00 | 0.00 | 0.00 | 80 | 1012.8 |
| 20260506013034 | 31 | 178 | 0.0 | 0.9 | 0.00 | 0.00 | 0.00 | 78 | 1012.8 |
| 20260506011558 | 31 | 178 | 0.0 | 0.9 | 0.00 | 0.00 | 0.00 | 77 | 1012.7 |
| 20260506010030 | 31 | 181 | 0.0 | 0.9 | 0.00 | 0.00 | 0.00 | 76 | 1012.6 |
| 20260506004539 | 31 | 220 | 0.0 | 0.0 | 0.00 | 0.00 | 0.00 | 75 | 1012.5 |
| 20260506003030 | 31 | 220 | 0.0 | 0.0 | 0.00 | 0.00 | 0.00 | 73 | 1012.5 |
| 20260506001530 | 31 | 220 | 0.0 | 0.0 | 0.00 | 0.00 | 0.00 | 73 | 1012.5 |
| 20260506000025 | 31 | 220 | 0.0 | 0.0 | 0.00 | 0.00 | 0.00 | 74 | 1012.4 |
| 20260505234522 | 31 | 220 | 0.0 | 0.0 | 0.00 | 0.00 | 0.00 | 72 | 1012.5 |
| 20260505233030 | 32 | 220 | 0.0 | 0.0 | 0.00 | 0.00 | 0.00 | 71 | 1012.5 |
| 20260505231522 | 32 | 220 | 0.0 | 0.0 | 0.00 | 0.00 | 0.00 | 72 | 1012.4 |
| 20260505230018 | 32 | 220 | 0.0 | 0.0 | 0.00 | 0.00 | 0.00 | 71 | 1012.4 |
| 20260505224517 | 32 | 220 | 0.0 | 0.0 | 0.00 | 0.00 | 0.00 | 70 | 1012.4 |
| 20260505223018 | 32 | 220 | 0.0 | 0.0 | 0.00 | 0.00 | 0.00 | 69 | 1012.4 |
| 20260505221513 | 33 | 220 | 0.0 | 0.0 | 0.00 | 0.00 | 0.00 | 68 | 1012.4 |
| 20260505220022 | 34 | 220 | 0.0 | 0.0 | 0.00 | 0.00 | 0.00 | 66 | 1012.4 |
| 20260505214514 | 34 | 220 | 0.0 | 0.0 | 0.00 | 0.00 | 0.00 | 65 | 1012.3 |
| 20260505213009 | 34 | 220 | 0.0 | 0.0 | 0.00 | 0.00 | 0.00 | 65 | 1012.3 |
| 20260505211505 | 35 | 220 | 0.0 | 0.0 | 0.00 | 0.00 | 0.00 | 64 | 1012.1 |
| 20260505210004 | 35 | 220 | 0.0 | 0.0 | 0.00 | 0.00 | 0.00 | 63 | 1012.0 |
| 20260505204612 | 36 | 220 | 0.0 | 0.0 | 0.00 | 0.00 | 0.00 | 61 | 1012.0 |
| 20260505203107 | 36 | 220 | 0.0 | 0.0 | 0.00 | 0.00 | 0.00 | 58 | 1011.8 |
| 20260505201556 | 37 | 220 | 0.0 | 0.0 | 0.00 | 0.00 | 0.00 | 57 | 1011.7 |
| 20260505200054 | 38 | 220 | 0.0 | 0.0 | 0.00 | 0.00 | 0.00 | 55 | 1011.6 |
| 20260505194558 | 40 | 220 | 0.0 | 1.7 | 0.00 | 0.00 | 0.00 | 53 | 1011.5 |
| 20260505193047 | 41 | 220 | 0.0 | 2.6 | 0.00 | 0.00 | 0.00 | 51 | 1011.3 |
| 20260505191548 | 44 | 224 | 0.0 | 0.9 | 0.00 | 0.00 | 0.00 | 46 | 1011.3 |
| 20260505190046 | 45 | 224 | 0.0 | 1.7 | 0.00 | 0.00 | 0.00 | 40 | 1011.3 |
| 20260505184551 | 47 | 272 | 0.0 | 0.0 | 0.00 | 0.00 | 0.00 | 39 | 1011.2 |
| 20260505183050 | 48 | 277 | 0.0 | 0.0 | 0.00 | 0.00 | 0.00 | 37 | 1011.1 |
| 20260505181542 | 49 | 303 | 0.9 | 5.2 | 0.00 | 0.00 | 0.00 | 35 | 1010.9 |
| 20260505180040 | 49 | 297 | 0.0 | 5.2 | 0.00 | 0.00 | 0.00 | 35 | 1010.9 |
| 20260505174541 | 50 | 10 | 1.7 | 9.6 | 0.00 | 0.00 | 0.00 | 35 | 1010.7 |
| 20260505173038 | 50 | 330 | 5.2 | 9.6 | 0.00 | 0.00 | 0.00 | 32 | 1010.6 |
| 20260505171536 | 50 | 293 | 2.6 | 9.6 | 0.00 | 0.00 | 0.00 | 33 | 1010.4 |
| 20260505170035 | 50 | 336 | 1.7 | 10.4 | 0.00 | 0.00 | 0.00 | 36 | 1010.3 |
| 20260505164552 | 51 | 303 | 4.3 | 9.6 | 0.00 | 0.00 | 0.00 | 35 | 1010.3 |
| 20260505163036 | 51 | 279 | 4.3 | 9.6 | 0.00 | 0.00 | 0.00 | 31 | 1010.2 |
| 20260505161544 | 51 | 310 | 2.6 | 8.7 | 0.00 | 0.00 | 0.00 | 33 | 1010.0 |
| 20260505153031 | 52 | 270 | 0.9 | 9.6 | 0.00 | 0.00 | 0.00 | 33 | 1010.0 |
| 20260505151531 | 51 | 296 | 2.6 | 13.0 | 0.00 | 0.00 | 0.00 | 33 | 1009.9 |
| 20260505124526 | 49 | 287 | 5.2 | 11.3 | 0.00 | 0.00 | 0.00 | 38 | 1010.2 |
| 20260505123016 | 50 | 313 | 1.7 | 10.4 | 0.00 | 0.00 | 0.00 | 39 | 1010.2 |
| 20260505121516 | 49 | 284 | 0.9 | 12.2 | 0.00 | 0.00 | 0.00 | 40 | 1010.3 |
| 20260505120115 | 49 | 309 | 2.6 | 11.3 | 0.00 | 0.00 | 0.00 | 37 | 1010.3 |